sensor_id;sensor_type;location;lat;lon;timestamp;P1;durP1;ratioP1;P2;durP2;ratioP2
53718;SDS011;39616;48.872;9.390;2022-12-07T00:00:24;14.85;;;7.22;;
53718;SDS011;39616;48.872;9.390;2022-12-07T00:02:55;14.82;;;8.07;;
53718;SDS011;39616;48.872;9.390;2022-12-07T00:05:25;13.65;;;7.85;;
53718;SDS011;39616;48.872;9.390;2022-12-07T00:07:55;16.77;;;7.68;;
53718;SDS011;39616;48.872;9.390;2022-12-07T00:10:26;11.18;;;7.32;;
53718;SDS011;39616;48.872;9.390;2022-12-07T00:12:56;16.45;;;7.40;;
53718;SDS011;39616;48.872;9.390;2022-12-07T00:15:26;12.43;;;6.68;;
53718;SDS011;39616;48.872;9.390;2022-12-07T00:17:57;13.52;;;7.97;;
53718;SDS011;39616;48.872;9.390;2022-12-07T00:20:27;14.27;;;7.68;;
53718;SDS011;39616;48.872;9.390;2022-12-07T00:23:00;13.35;;;7.13;;
53718;SDS011;39616;48.872;9.390;2022-12-07T00:25:30;16.83;;;7.88;;
53718;SDS011;39616;48.872;9.390;2022-12-07T00:28:00;14.43;;;7.47;;
53718;SDS011;39616;48.872;9.390;2022-12-07T00:30:31;12.63;;;7.43;;
53718;SDS011;39616;48.872;9.390;2022-12-07T00:33:01;14.43;;;6.93;;
53718;SDS011;39616;48.872;9.390;2022-12-07T00:35:31;12.18;;;7.53;;
53718;SDS011;39616;48.872;9.390;2022-12-07T00:38:02;13.07;;;7.32;;
53718;SDS011;39616;48.872;9.390;2022-12-07T00:40:32;12.30;;;6.80;;
53718;SDS011;39616;48.872;9.390;2022-12-07T00:43:02;14.93;;;7.53;;
53718;SDS011;39616;48.872;9.390;2022-12-07T00:45:33;17.33;;;8.70;;
53718;SDS011;39616;48.872;9.390;2022-12-07T00:48:03;11.40;;;7.43;;
53718;SDS011;39616;48.872;9.390;2022-12-07T00:50:33;11.68;;;7.97;;
53718;SDS011;39616;48.872;9.390;2022-12-07T00:53:04;14.93;;;7.13;;
53718;SDS011;39616;48.872;9.390;2022-12-07T00:55:34;12.88;;;8.50;;
53718;SDS011;39616;48.872;9.390;2022-12-07T00:58:05;12.98;;;7.18;;
53718;SDS011;39616;48.872;9.390;2022-12-07T01:00:36;12.07;;;7.53;;
53718;SDS011;39616;48.872;9.390;2022-12-07T01:03:08;12.60;;;6.63;;
53718;SDS011;39616;48.872;9.390;2022-12-07T01:05:40;11.60;;;6.47;;
53718;SDS011;39616;48.872;9.390;2022-12-07T01:08:10;11.80;;;7.30;;
53718;SDS011;39616;48.872;9.390;2022-12-07T01:10:40;13.35;;;7.22;;
53718;SDS011;39616;48.872;9.390;2022-12-07T01:13:10;11.07;;;7.50;;
53718;SDS011;39616;48.872;9.390;2022-12-07T01:15:41;13.68;;;7.45;;
53718;SDS011;39616;48.872;9.390;2022-12-07T01:18:13;10.88;;;6.68;;
53718;SDS011;39616;48.872;9.390;2022-12-07T01:20:43;12.27;;;6.90;;
53718;SDS011;39616;48.872;9.390;2022-12-07T01:23:13;13.70;;;8.10;;
53718;SDS011;39616;48.872;9.390;2022-12-07T01:25:44;12.52;;;7.70;;
53718;SDS011;39616;48.872;9.390;2022-12-07T01:28:15;11.30;;;6.63;;
53718;SDS011;39616;48.872;9.390;2022-12-07T01:30:54;13.73;;;7.32;;
53718;SDS011;39616;48.872;9.390;2022-12-07T01:33:28;13.35;;;7.13;;
53718;SDS011;39616;48.872;9.390;2022-12-07T01:36:04;14.57;;;8.55;;
53718;SDS011;39616;48.872;9.390;2022-12-07T01:38:58;13.13;;;7.88;;
53718;SDS011;39616;48.872;9.390;2022-12-07T01:41:31;14.70;;;6.82;;
53718;SDS011;39616;48.872;9.390;2022-12-07T01:49:27;14.00;;;7.45;;
53718;SDS011;39616;48.872;9.390;2022-12-07T01:52:16;14.07;;;7.93;;
53718;SDS011;39616;48.872;9.390;2022-12-07T01:54:58;14.73;;;8.18;;
53718;SDS011;39616;48.872;9.390;2022-12-07T01:57:32;18.23;;;9.30;;
53718;SDS011;39616;48.872;9.390;2022-12-07T02:00:06;14.25;;;7.68;;
53718;SDS011;39616;48.872;9.390;2022-12-07T02:02:41;15.65;;;8.00;;
53718;SDS011;39616;48.872;9.390;2022-12-07T02:05:16;12.35;;;7.20;;
53718;SDS011;39616;48.872;9.390;2022-12-07T02:07:47;12.23;;;6.72;;
53718;SDS011;39616;48.872;9.390;2022-12-07T02:13:10;14.45;;;7.47;;
53718;SDS011;39616;48.872;9.390;2022-12-07T02:15:59;15.23;;;8.20;;
53718;SDS011;39616;48.872;9.390;2022-12-07T02:38:31;16.02;;;7.28;;
53718;SDS011;39616;48.872;9.390;2022-12-07T02:44:06;17.40;;;8.27;;
53718;SDS011;39616;48.872;9.390;2022-12-07T02:46:40;14.98;;;8.15;;
53718;SDS011;39616;48.872;9.390;2022-12-07T02:49:12;18.25;;;8.35;;
53718;SDS011;39616;48.872;9.390;2022-12-07T02:51:44;16.13;;;8.10;;
53718;SDS011;39616;48.872;9.390;2022-12-07T02:54:17;16.52;;;8.18;;
53718;SDS011;39616;48.872;9.390;2022-12-07T03:00:05;19.83;;;7.57;;
53718;SDS011;39616;48.872;9.390;2022-12-07T03:05:31;14.57;;;7.80;;
53718;SDS011;39616;48.872;9.390;2022-12-07T03:10:58;14.68;;;7.72;;
53718;SDS011;39616;48.872;9.390;2022-12-07T03:13:40;14.15;;;7.60;;
53718;SDS011;39616;48.872;9.390;2022-12-07T03:16:21;13.73;;;7.40;;
53718;SDS011;39616;48.872;9.390;2022-12-07T03:19:02;14.55;;;7.47;;
53718;SDS011;39616;48.872;9.390;2022-12-07T03:21:40;15.20;;;7.90;;
53718;SDS011;39616;48.872;9.390;2022-12-07T03:24:19;15.38;;;7.93;;
53718;SDS011;39616;48.872;9.390;2022-12-07T03:26:52;16.15;;;8.10;;
53718;SDS011;39616;48.872;9.390;2022-12-07T03:29:31;15.63;;;8.10;;
53718;SDS011;39616;48.872;9.390;2022-12-07T03:43:05;14.80;;;9.02;;
53718;SDS011;39616;48.872;9.390;2022-12-07T03:51:01;15.48;;;8.98;;
53718;SDS011;39616;48.872;9.390;2022-12-07T03:53:46;18.30;;;8.27;;
53718;SDS011;39616;48.872;9.390;2022-12-07T03:56:24;15.88;;;8.07;;
53718;SDS011;39616;48.872;9.390;2022-12-07T03:58:55;15.68;;;8.35;;
53718;SDS011;39616;48.872;9.390;2022-12-07T04:01:26;17.02;;;8.48;;
53718;SDS011;39616;48.872;9.390;2022-12-07T04:03:57;17.55;;;8.30;;
53718;SDS011;39616;48.872;9.390;2022-12-07T04:06:27;14.23;;;8.15;;
53718;SDS011;39616;48.872;9.390;2022-12-07T04:08:58;13.43;;;8.23;;
53718;SDS011;39616;48.872;9.390;2022-12-07T04:11:28;15.20;;;7.80;;
53718;SDS011;39616;48.872;9.390;2022-12-07T04:13:58;18.42;;;8.50;;
53718;SDS011;39616;48.872;9.390;2022-12-07T04:16:51;14.80;;;8.32;;
53718;SDS011;39616;48.872;9.390;2022-12-07T04:19:24;14.05;;;7.80;;
53718;SDS011;39616;48.872;9.390;2022-12-07T04:21:57;16.05;;;8.05;;
53718;SDS011;39616;48.872;9.390;2022-12-07T04:24:28;19.63;;;8.27;;
53718;SDS011;39616;48.872;9.390;2022-12-07T04:26:59;17.40;;;8.32;;
53718;SDS011;39616;48.872;9.390;2022-12-07T04:29:29;17.50;;;8.30;;
53718;SDS011;39616;48.872;9.390;2022-12-07T04:31:59;17.00;;;8.65;;
53718;SDS011;39616;48.872;9.390;2022-12-07T04:34:30;17.27;;;9.07;;
53718;SDS011;39616;48.872;9.390;2022-12-07T04:37:00;23.45;;;9.40;;
53718;SDS011;39616;48.872;9.390;2022-12-07T04:39:31;21.52;;;8.73;;
53718;SDS011;39616;48.872;9.390;2022-12-07T04:42:02;15.73;;;8.60;;
53718;SDS011;39616;48.872;9.390;2022-12-07T04:44:33;17.10;;;9.38;;
53718;SDS011;39616;48.872;9.390;2022-12-07T04:47:03;14.05;;;7.63;;
53718;SDS011;39616;48.872;9.390;2022-12-07T04:49:34;13.30;;;8.15;;
53718;SDS011;39616;48.872;9.390;2022-12-07T04:52:04;16.92;;;7.63;;
53718;SDS011;39616;48.872;9.390;2022-12-07T04:54:34;14.95;;;7.53;;
53718;SDS011;39616;48.872;9.390;2022-12-07T04:57:05;17.73;;;8.35;;
53718;SDS011;39616;48.872;9.390;2022-12-07T04:59:35;19.80;;;7.60;;
53718;SDS011;39616;48.872;9.390;2022-12-07T05:02:05;15.10;;;7.50;;
53718;SDS011;39616;48.872;9.390;2022-12-07T05:04:36;17.00;;;8.52;;
53718;SDS011;39616;48.872;9.390;2022-12-07T05:07:06;15.02;;;7.88;;
53718;SDS011;39616;48.872;9.390;2022-12-07T05:09:36;17.55;;;8.93;;
53718;SDS011;39616;48.872;9.390;2022-12-07T05:12:07;17.58;;;8.48;;
53718;SDS011;39616;48.872;9.390;2022-12-07T05:14:37;17.90;;;8.52;;
53718;SDS011;39616;48.872;9.390;2022-12-07T05:17:08;15.55;;;8.50;;
53718;SDS011;39616;48.872;9.390;2022-12-07T05:19:38;16.73;;;8.80;;
53718;SDS011;39616;48.872;9.390;2022-12-07T05:22:08;22.13;;;9.82;;
53718;SDS011;39616;48.872;9.390;2022-12-07T05:24:39;13.77;;;8.02;;
53718;SDS011;39616;48.872;9.390;2022-12-07T05:27:09;15.75;;;7.85;;
53718;SDS011;39616;48.872;9.390;2022-12-07T05:29:40;17.45;;;8.38;;
53718;SDS011;39616;48.872;9.390;2022-12-07T05:32:10;15.45;;;8.25;;
53718;SDS011;39616;48.872;9.390;2022-12-07T05:34:40;15.68;;;8.05;;
53718;SDS011;39616;48.872;9.390;2022-12-07T05:37:11;18.70;;;11.90;;
53718;SDS011;39616;48.872;9.390;2022-12-07T05:39:41;15.50;;;9.02;;
53718;SDS011;39616;48.872;9.390;2022-12-07T05:42:12;17.50;;;9.63;;
53718;SDS011;39616;48.872;9.390;2022-12-07T05:44:44;18.17;;;8.02;;
53718;SDS011;39616;48.872;9.390;2022-12-07T05:47:15;16.05;;;8.48;;
53718;SDS011;39616;48.872;9.390;2022-12-07T05:49:46;17.73;;;9.50;;
53718;SDS011;39616;48.872;9.390;2022-12-07T05:52:16;21.15;;;8.30;;
53718;SDS011;39616;48.872;9.390;2022-12-07T05:54:47;14.13;;;8.00;;
53718;SDS011;39616;48.872;9.390;2022-12-07T05:57:17;15.60;;;8.40;;
53718;SDS011;39616;48.872;9.390;2022-12-07T05:59:48;21.77;;;9.30;;
53718;SDS011;39616;48.872;9.390;2022-12-07T06:02:18;17.50;;;8.82;;
53718;SDS011;39616;48.872;9.390;2022-12-07T06:04:49;17.15;;;9.50;;
53718;SDS011;39616;48.872;9.390;2022-12-07T06:07:19;18.60;;;8.70;;
53718;SDS011;39616;48.872;9.390;2022-12-07T06:09:49;17.48;;;8.60;;
53718;SDS011;39616;48.872;9.390;2022-12-07T06:12:19;17.60;;;7.97;;
53718;SDS011;39616;48.872;9.390;2022-12-07T06:15:05;17.55;;;8.98;;
53718;SDS011;39616;48.872;9.390;2022-12-07T06:17:36;15.35;;;7.50;;
53718;SDS011;39616;48.872;9.390;2022-12-07T06:20:07;17.98;;;8.13;;
53718;SDS011;39616;48.872;9.390;2022-12-07T06:22:37;14.00;;;8.15;;
53718;SDS011;39616;48.872;9.390;2022-12-07T06:25:08;15.65;;;8.02;;
53718;SDS011;39616;48.872;9.390;2022-12-07T06:27:38;16.25;;;7.78;;
53718;SDS011;39616;48.872;9.390;2022-12-07T06:30:09;15.55;;;8.25;;
53718;SDS011;39616;48.872;9.390;2022-12-07T06:32:39;14.48;;;7.85;;
53718;SDS011;39616;48.872;9.390;2022-12-07T06:35:09;15.80;;;7.97;;
53718;SDS011;39616;48.872;9.390;2022-12-07T06:37:40;15.68;;;7.25;;
53718;SDS011;39616;48.872;9.390;2022-12-07T06:40:10;19.63;;;9.25;;
53718;SDS011;39616;48.872;9.390;2022-12-07T06:42:41;17.33;;;9.23;;
53718;SDS011;39616;48.872;9.390;2022-12-07T06:45:11;14.57;;;7.30;;
53718;SDS011;39616;48.872;9.390;2022-12-07T06:47:41;17.52;;;7.50;;
53718;SDS011;39616;48.872;9.390;2022-12-07T06:50:12;17.63;;;7.68;;
53718;SDS011;39616;48.872;9.390;2022-12-07T06:52:42;18.00;;;8.10;;
53718;SDS011;39616;48.872;9.390;2022-12-07T06:55:12;17.17;;;7.50;;
53718;SDS011;39616;48.872;9.390;2022-12-07T06:57:43;19.75;;;8.30;;
53718;SDS011;39616;48.872;9.390;2022-12-07T07:00:13;18.15;;;9.25;;
53718;SDS011;39616;48.872;9.390;2022-12-07T07:02:44;16.98;;;7.85;;
53718;SDS011;39616;48.872;9.390;2022-12-07T07:05:14;19.38;;;7.88;;
53718;SDS011;39616;48.872;9.390;2022-12-07T07:07:46;15.48;;;7.90;;
53718;SDS011;39616;48.872;9.390;2022-12-07T07:10:17;21.20;;;8.63;;
53718;SDS011;39616;48.872;9.390;2022-12-07T07:12:48;15.90;;;7.60;;
53718;SDS011;39616;48.872;9.390;2022-12-07T07:15:18;19.73;;;8.90;;
53718;SDS011;39616;48.872;9.390;2022-12-07T07:17:48;15.02;;;8.55;;
53718;SDS011;39616;48.872;9.390;2022-12-07T07:20:19;17.15;;;8.80;;
53718;SDS011;39616;48.872;9.390;2022-12-07T07:22:49;15.77;;;8.35;;
53718;SDS011;39616;48.872;9.390;2022-12-07T07:25:19;15.32;;;7.85;;
53718;SDS011;39616;48.872;9.390;2022-12-07T07:27:50;15.25;;;8.75;;
53718;SDS011;39616;48.872;9.390;2022-12-07T07:30:20;16.17;;;7.35;;
53718;SDS011;39616;48.872;9.390;2022-12-07T07:32:51;18.17;;;8.55;;
53718;SDS011;39616;48.872;9.390;2022-12-07T07:35:21;15.63;;;8.15;;
53718;SDS011;39616;48.872;9.390;2022-12-07T07:37:51;11.63;;;7.13;;
53718;SDS011;39616;48.872;9.390;2022-12-07T07:40:22;19.17;;;8.18;;
53718;SDS011;39616;48.872;9.390;2022-12-07T07:42:53;17.67;;;7.60;;
53718;SDS011;39616;48.872;9.390;2022-12-07T07:45:24;13.38;;;8.07;;
53718;SDS011;39616;48.872;9.390;2022-12-07T07:47:55;14.15;;;6.68;;
53718;SDS011;39616;48.872;9.390;2022-12-07T07:50:26;13.85;;;6.25;;
53718;SDS011;39616;48.872;9.390;2022-12-07T07:52:57;10.88;;;6.13;;
53718;SDS011;39616;48.872;9.390;2022-12-07T07:55:28;10.77;;;5.82;;
53718;SDS011;39616;48.872;9.390;2022-12-07T07:57:58;10.52;;;6.15;;
53718;SDS011;39616;48.872;9.390;2022-12-07T08:00:29;9.95;;;5.47;;
53718;SDS011;39616;48.872;9.390;2022-12-07T08:03:01;11.65;;;5.70;;
53718;SDS011;39616;48.872;9.390;2022-12-07T08:05:32;14.27;;;6.10;;
53718;SDS011;39616;48.872;9.390;2022-12-07T08:08:02;11.70;;;6.93;;
53718;SDS011;39616;48.872;9.390;2022-12-07T08:10:32;15.40;;;6.80;;
53718;SDS011;39616;48.872;9.390;2022-12-07T08:13:04;12.90;;;6.70;;
53718;SDS011;39616;48.872;9.390;2022-12-07T08:18:12;10.20;;;6.03;;
53718;SDS011;39616;48.872;9.390;2022-12-07T08:20:44;12.73;;;6.47;;
53718;SDS011;39616;48.872;9.390;2022-12-07T08:23:14;9.15;;;6.25;;
53718;SDS011;39616;48.872;9.390;2022-12-07T08:25:45;10.73;;;6.05;;
53718;SDS011;39616;48.872;9.390;2022-12-07T08:28:15;11.13;;;5.63;;
53718;SDS011;39616;48.872;9.390;2022-12-07T08:30:45;14.38;;;6.35;;
53718;SDS011;39616;48.872;9.390;2022-12-07T08:33:16;12.35;;;5.90;;
53718;SDS011;39616;48.872;9.390;2022-12-07T08:35:46;11.32;;;5.75;;
53718;SDS011;39616;48.872;9.390;2022-12-07T08:38:16;11.07;;;6.05;;
53718;SDS011;39616;48.872;9.390;2022-12-07T08:40:53;11.80;;;5.60;;
53718;SDS011;39616;48.872;9.390;2022-12-07T08:43:25;10.35;;;5.00;;
53718;SDS011;39616;48.872;9.390;2022-12-07T08:48:39;10.90;;;5.00;;
53718;SDS011;39616;48.872;9.390;2022-12-07T08:51:14;10.13;;;5.82;;
53718;SDS011;39616;48.872;9.390;2022-12-07T08:53:45;7.43;;;4.60;;
53718;SDS011;39616;48.872;9.390;2022-12-07T08:56:15;12.13;;;5.75;;
53718;SDS011;39616;48.872;9.390;2022-12-07T08:58:46;8.15;;;5.22;;
53718;SDS011;39616;48.872;9.390;2022-12-07T09:01:17;7.85;;;3.85;;
53718;SDS011;39616;48.872;9.390;2022-12-07T09:03:47;7.70;;;4.13;;
53718;SDS011;39616;48.872;9.390;2022-12-07T09:06:17;11.23;;;4.05;;
53718;SDS011;39616;48.872;9.390;2022-12-07T09:08:49;9.50;;;3.97;;
53718;SDS011;39616;48.872;9.390;2022-12-07T09:11:25;8.25;;;4.05;;
53718;SDS011;39616;48.872;9.390;2022-12-07T09:13:55;7.82;;;3.15;;
53718;SDS011;39616;48.872;9.390;2022-12-07T09:16:26;5.95;;;3.17;;
53718;SDS011;39616;48.872;9.390;2022-12-07T09:18:56;6.82;;;3.97;;
53718;SDS011;39616;48.872;9.390;2022-12-07T09:21:27;9.93;;;3.97;;
53718;SDS011;39616;48.872;9.390;2022-12-07T09:23:57;7.47;;;3.58;;
53718;SDS011;39616;48.872;9.390;2022-12-07T09:26:28;6.32;;;3.55;;
53718;SDS011;39616;48.872;9.390;2022-12-07T09:28:58;8.95;;;4.78;;
53718;SDS011;39616;48.872;9.390;2022-12-07T09:31:30;6.70;;;3.72;;
53718;SDS011;39616;48.872;9.390;2022-12-07T09:34:00;7.57;;;3.90;;
53718;SDS011;39616;48.872;9.390;2022-12-07T09:36:31;8.50;;;4.25;;
53718;SDS011;39616;48.872;9.390;2022-12-07T09:39:04;8.13;;;3.53;;
53718;SDS011;39616;48.872;9.390;2022-12-07T09:41:37;8.05;;;3.97;;
53718;SDS011;39616;48.872;9.390;2022-12-07T09:44:21;8.35;;;3.67;;
53718;SDS011;39616;48.872;9.390;2022-12-07T09:46:54;8.52;;;4.68;;
53718;SDS011;39616;48.872;9.390;2022-12-07T09:49:28;9.15;;;4.60;;
53718;SDS011;39616;48.872;9.390;2022-12-07T09:54:38;7.32;;;4.07;;
53718;SDS011;39616;48.872;9.390;2022-12-07T09:57:11;6.47;;;3.78;;
53718;SDS011;39616;48.872;9.390;2022-12-07T09:59:42;10.32;;;4.35;;
53718;SDS011;39616;48.872;9.390;2022-12-07T10:02:23;13.13;;;5.30;;
53718;SDS011;39616;48.872;9.390;2022-12-07T10:05:11;9.88;;;4.50;;
53718;SDS011;39616;48.872;9.390;2022-12-07T10:07:44;10.25;;;4.95;;
53718;SDS011;39616;48.872;9.390;2022-12-07T10:10:15;9.07;;;4.60;;
53718;SDS011;39616;48.872;9.390;2022-12-07T10:12:53;15.82;;;3.90;;
53718;SDS011;39616;48.872;9.390;2022-12-07T10:21:12;7.20;;;3.10;;
53718;SDS011;39616;48.872;9.390;2022-12-07T10:24:01;11.27;;;3.30;;
53718;SDS011;39616;48.872;9.390;2022-12-07T10:26:35;7.47;;;3.00;;
53718;SDS011;39616;48.872;9.390;2022-12-07T10:29:18;6.20;;;3.10;;
53718;SDS011;39616;48.872;9.390;2022-12-07T10:31:55;8.13;;;3.63;;
53718;SDS011;39616;48.872;9.390;2022-12-07T10:34:32;7.97;;;3.08;;
53718;SDS011;39616;48.872;9.390;2022-12-07T10:39:47;5.57;;;2.83;;
53718;SDS011;39616;48.872;9.390;2022-12-07T10:42:23;6.65;;;3.13;;
53718;SDS011;39616;48.872;9.390;2022-12-07T10:45:08;6.00;;;3.00;;
53718;SDS011;39616;48.872;9.390;2022-12-07T10:50:52;6.32;;;3.60;;
53718;SDS011;39616;48.872;9.390;2022-12-07T10:53:47;5.82;;;3.13;;
53718;SDS011;39616;48.872;9.390;2022-12-07T11:08:17;3.45;;;1.92;;
53718;SDS011;39616;48.872;9.390;2022-12-07T11:11:13;7.50;;;3.03;;
53718;SDS011;39616;48.872;9.390;2022-12-07T11:22:06;3.03;;;2.00;;
53718;SDS011;39616;48.872;9.390;2022-12-07T11:33:47;6.27;;;3.13;;
53718;SDS011;39616;48.872;9.390;2022-12-07T11:36:42;6.88;;;2.65;;
53718;SDS011;39616;48.872;9.390;2022-12-07T11:39:28;5.20;;;2.85;;
53718;SDS011;39616;48.872;9.390;2022-12-07T11:42:26;7.55;;;3.35;;
53718;SDS011;39616;48.872;9.390;2022-12-07T11:45:14;7.40;;;2.78;;
53718;SDS011;39616;48.872;9.390;2022-12-07T11:50:51;6.93;;;3.22;;
53718;SDS011;39616;48.872;9.390;2022-12-07T11:54:26;8.32;;;3.65;;
53718;SDS011;39616;48.872;9.390;2022-12-07T11:56:31;6.90;;;3.45;;
53718;SDS011;39616;48.872;9.390;2022-12-07T12:07:32;10.65;;;4.60;;
53718;SDS011;39616;48.872;9.390;2022-12-07T12:10:05;8.73;;;4.57;;
53718;SDS011;39616;48.872;9.390;2022-12-07T12:12:50;7.15;;;4.15;;
53718;SDS011;39616;48.872;9.390;2022-12-07T12:15:31;10.80;;;5.25;;
53718;SDS011;39616;48.872;9.390;2022-12-07T12:21:01;9.48;;;4.75;;
53718;SDS011;39616;48.872;9.390;2022-12-07T12:23:40;9.90;;;4.97;;
53718;SDS011;39616;48.872;9.390;2022-12-07T12:26:16;15.52;;;6.85;;
53718;SDS011;39616;48.872;9.390;2022-12-07T12:29:05;12.40;;;6.07;;
53718;SDS011;39616;48.872;9.390;2022-12-07T12:32:04;14.32;;;7.03;;
53718;SDS011;39616;48.872;9.390;2022-12-07T12:40:47;10.93;;;5.88;;
53718;SDS011;39616;48.872;9.390;2022-12-07T12:43:01;18.10;;;6.63;;
53718;SDS011;39616;48.872;9.390;2022-12-07T12:45:32;9.93;;;5.28;;
53718;SDS011;39616;48.872;9.390;2022-12-07T12:50:34;13.05;;;5.40;;
53718;SDS011;39616;48.872;9.390;2022-12-07T12:53:13;10.93;;;5.63;;
53718;SDS011;39616;48.872;9.390;2022-12-07T12:59:17;12.48;;;6.30;;
53718;SDS011;39616;48.872;9.390;2022-12-07T13:01:54;12.00;;;5.97;;
53718;SDS011;39616;48.872;9.390;2022-12-07T13:04:53;11.80;;;6.10;;
53718;SDS011;39616;48.872;9.390;2022-12-07T13:26:21;11.57;;;6.40;;
53718;SDS011;39616;48.872;9.390;2022-12-07T13:29:10;17.55;;;8.10;;
53718;SDS011;39616;48.872;9.390;2022-12-07T13:31:46;15.65;;;7.45;;
53718;SDS011;39616;48.872;9.390;2022-12-07T13:34:31;12.93;;;6.78;;
53718;SDS011;39616;48.872;9.390;2022-12-07T13:37:08;14.70;;;7.40;;
53718;SDS011;39616;48.872;9.390;2022-12-07T13:39:47;18.00;;;7.18;;
53718;SDS011;39616;48.872;9.390;2022-12-07T13:42:30;13.77;;;7.22;;
53718;SDS011;39616;48.872;9.390;2022-12-07T13:45:24;13.85;;;7.25;;
53718;SDS011;39616;48.872;9.390;2022-12-07T13:48:33;12.88;;;6.82;;
53718;SDS011;39616;48.872;9.390;2022-12-07T13:51:24;12.82;;;6.93;;
53718;SDS011;39616;48.872;9.390;2022-12-07T13:54:00;11.85;;;6.97;;
53718;SDS011;39616;48.872;9.390;2022-12-07T13:56:38;13.15;;;6.72;;
53718;SDS011;39616;48.872;9.390;2022-12-07T13:59:13;14.55;;;6.90;;
53718;SDS011;39616;48.872;9.390;2022-12-07T14:01:46;12.93;;;6.85;;
53718;SDS011;39616;48.872;9.390;2022-12-07T14:06:49;15.30;;;7.65;;
53718;SDS011;39616;48.872;9.390;2022-12-07T14:09:22;12.52;;;6.88;;
53718;SDS011;39616;48.872;9.390;2022-12-07T14:11:55;13.15;;;6.82;;
53718;SDS011;39616;48.872;9.390;2022-12-07T14:14:27;16.65;;;7.07;;
53718;SDS011;39616;48.872;9.390;2022-12-07T14:17:15;15.05;;;7.25;;
53718;SDS011;39616;48.872;9.390;2022-12-07T14:25:00;17.00;;;6.80;;
53718;SDS011;39616;48.872;9.390;2022-12-07T14:30:29;12.32;;;6.43;;
53718;SDS011;39616;48.872;9.390;2022-12-07T14:33:02;18.05;;;7.68;;
53718;SDS011;39616;48.872;9.390;2022-12-07T14:35:33;17.42;;;7.25;;
53718;SDS011;39616;48.872;9.390;2022-12-07T14:38:04;18.13;;;7.95;;
53718;SDS011;39616;48.872;9.390;2022-12-07T14:40:34;15.80;;;7.70;;
53718;SDS011;39616;48.872;9.390;2022-12-07T14:43:11;17.20;;;8.95;;
53718;SDS011;39616;48.872;9.390;2022-12-07T14:45:46;21.52;;;10.13;;
53718;SDS011;39616;48.872;9.390;2022-12-07T14:48:16;13.50;;;6.82;;
53718;SDS011;39616;48.872;9.390;2022-12-07T14:50:50;13.55;;;7.00;;
53718;SDS011;39616;48.872;9.390;2022-12-07T14:53:24;20.42;;;8.13;;
53718;SDS011;39616;48.872;9.390;2022-12-07T14:56:00;14.85;;;7.18;;
53718;SDS011;39616;48.872;9.390;2022-12-07T14:58:30;17.08;;;7.53;;
53718;SDS011;39616;48.872;9.390;2022-12-07T15:01:02;17.33;;;7.93;;
53718;SDS011;39616;48.872;9.390;2022-12-07T15:03:33;15.73;;;7.43;;
53718;SDS011;39616;48.872;9.390;2022-12-07T15:06:05;14.80;;;7.05;;
53718;SDS011;39616;48.872;9.390;2022-12-07T15:08:36;17.00;;;8.07;;
53718;SDS011;39616;48.872;9.390;2022-12-07T15:11:09;15.88;;;7.93;;
53718;SDS011;39616;48.872;9.390;2022-12-07T15:13:42;22.83;;;8.40;;
53718;SDS011;39616;48.872;9.390;2022-12-07T15:16:31;18.20;;;8.40;;
53718;SDS011;39616;48.872;9.390;2022-12-07T15:19:01;19.27;;;8.63;;
53718;SDS011;39616;48.872;9.390;2022-12-07T15:21:32;18.33;;;9.63;;
53718;SDS011;39616;48.872;9.390;2022-12-07T15:24:02;15.52;;;7.80;;
53718;SDS011;39616;48.872;9.390;2022-12-07T15:26:33;18.60;;;10.00;;
53718;SDS011;39616;48.872;9.390;2022-12-07T15:29:03;16.85;;;8.65;;
53718;SDS011;39616;48.872;9.390;2022-12-07T15:31:34;21.75;;;9.65;;
53718;SDS011;39616;48.872;9.390;2022-12-07T15:34:05;18.38;;;8.45;;
53718;SDS011;39616;48.872;9.390;2022-12-07T15:36:35;17.08;;;8.20;;
53718;SDS011;39616;48.872;9.390;2022-12-07T15:39:05;18.08;;;9.13;;
53718;SDS011;39616;48.872;9.390;2022-12-07T15:41:36;17.52;;;9.35;;
53718;SDS011;39616;48.872;9.390;2022-12-07T15:44:08;22.83;;;8.65;;
53718;SDS011;39616;48.872;9.390;2022-12-07T15:47:00;15.98;;;7.80;;
53718;SDS011;39616;48.872;9.390;2022-12-07T15:49:30;18.33;;;8.32;;
53718;SDS011;39616;48.872;9.390;2022-12-07T15:52:01;14.15;;;7.25;;
53718;SDS011;39616;48.872;9.390;2022-12-07T15:54:31;18.30;;;8.50;;
53718;SDS011;39616;48.872;9.390;2022-12-07T15:57:02;18.27;;;8.27;;
53718;SDS011;39616;48.872;9.390;2022-12-07T15:59:32;21.73;;;10.07;;
53718;SDS011;39616;48.872;9.390;2022-12-07T16:02:02;15.60;;;8.13;;
53718;SDS011;39616;48.872;9.390;2022-12-07T16:04:33;17.85;;;8.50;;
53718;SDS011;39616;48.872;9.390;2022-12-07T16:07:03;17.48;;;8.57;;
53718;SDS011;39616;48.872;9.390;2022-12-07T16:09:34;17.73;;;8.43;;
53718;SDS011;39616;48.872;9.390;2022-12-07T16:12:04;21.63;;;9.57;;
53718;SDS011;39616;48.872;9.390;2022-12-07T16:14:35;18.98;;;10.57;;
53718;SDS011;39616;48.872;9.390;2022-12-07T16:17:06;16.33;;;8.63;;
53718;SDS011;39616;48.872;9.390;2022-12-07T16:19:38;19.98;;;9.23;;
53718;SDS011;39616;48.872;9.390;2022-12-07T16:22:08;20.75;;;9.63;;
53718;SDS011;39616;48.872;9.390;2022-12-07T16:24:39;21.90;;;9.38;;
53718;SDS011;39616;48.872;9.390;2022-12-07T16:27:09;22.30;;;10.18;;
53718;SDS011;39616;48.872;9.390;2022-12-07T16:29:39;20.90;;;9.73;;
53718;SDS011;39616;48.872;9.390;2022-12-07T16:32:10;18.95;;;9.05;;
53718;SDS011;39616;48.872;9.390;2022-12-07T16:34:40;24.20;;;10.30;;
53718;SDS011;39616;48.872;9.390;2022-12-07T16:37:10;19.50;;;9.60;;
53718;SDS011;39616;48.872;9.390;2022-12-07T16:39:41;20.23;;;10.32;;
53718;SDS011;39616;48.872;9.390;2022-12-07T16:42:11;21.00;;;9.43;;
53718;SDS011;39616;48.872;9.390;2022-12-07T16:44:41;20.45;;;10.93;;
53718;SDS011;39616;48.872;9.390;2022-12-07T16:47:12;22.38;;;9.48;;
53718;SDS011;39616;48.872;9.390;2022-12-07T16:49:42;22.33;;;10.05;;
53718;SDS011;39616;48.872;9.390;2022-12-07T16:52:13;23.05;;;8.90;;
53718;SDS011;39616;48.872;9.390;2022-12-07T16:54:43;26.30;;;15.15;;
53718;SDS011;39616;48.872;9.390;2022-12-07T16:57:14;17.70;;;8.85;;
53718;SDS011;39616;48.872;9.390;2022-12-07T16:59:45;20.65;;;9.27;;
53718;SDS011;39616;48.872;9.390;2022-12-07T17:02:15;18.65;;;9.02;;
53718;SDS011;39616;48.872;9.390;2022-12-07T17:04:45;19.15;;;9.25;;
53718;SDS011;39616;48.872;9.390;2022-12-07T17:07:16;20.25;;;9.27;;
53718;SDS011;39616;48.872;9.390;2022-12-07T17:09:46;17.73;;;8.80;;
53718;SDS011;39616;48.872;9.390;2022-12-07T17:12:17;18.63;;;9.50;;
53718;SDS011;39616;48.872;9.390;2022-12-07T17:14:47;15.10;;;8.13;;
53718;SDS011;39616;48.872;9.390;2022-12-07T17:17:36;22.77;;;9.13;;
53718;SDS011;39616;48.872;9.390;2022-12-07T17:20:06;20.77;;;9.73;;
53718;SDS011;39616;48.872;9.390;2022-12-07T17:22:37;18.10;;;8.57;;
53718;SDS011;39616;48.872;9.390;2022-12-07T17:25:07;33.90;;;14.70;;
53718;SDS011;39616;48.872;9.390;2022-12-07T17:27:38;38.20;;;18.60;;
53718;SDS011;39616;48.872;9.390;2022-12-07T17:30:08;24.10;;;11.07;;
53718;SDS011;39616;48.872;9.390;2022-12-07T17:32:42;18.60;;;7.97;;
53718;SDS011;39616;48.872;9.390;2022-12-07T17:35:12;38.25;;;16.58;;
53718;SDS011;39616;48.872;9.390;2022-12-07T17:37:43;23.33;;;10.23;;
53718;SDS011;39616;48.872;9.390;2022-12-07T17:40:14;26.30;;;12.90;;
53718;SDS011;39616;48.872;9.390;2022-12-07T17:42:44;26.70;;;12.25;;
53718;SDS011;39616;48.872;9.390;2022-12-07T17:45:19;99.75;;;41.25;;
53718;SDS011;39616;48.872;9.390;2022-12-07T17:47:49;63.63;;;28.00;;
53718;SDS011;39616;48.872;9.390;2022-12-07T17:50:20;29.67;;;14.30;;
53718;SDS011;39616;48.872;9.390;2022-12-07T17:53:10;31.02;;;14.07;;